Terminal Aerodrome Forecast
Issued by NWS Melbourne, FL

Home | Current Version | Previous Version | Text Only | Print | Product List | Glossary On
Versions: 1 2 3 4 5 6 7 8 9 10 11 12 13 14 15 16
000
FTUS42 KMLB 122300
TAFDAB
TAF
KDAB 122323Z 1300/1324 06005KT P6SM VCTS SCT025CB SCT120 BKN250
     FM130100 08003KT P6SM FEW025 SCT100 SCT250
     FM131400 19005KT P6SM SCT025 BKN250
     FM131700 07007KT P6SM VCTS SCT030CB BKN100=

USA.gov is the U.S. government's official web portal to all federal, state and local government web resources and services.